Portada
METAR-TAF:

METAR-TAF

Aeropuertos :

Aeropuerto de León

León, España

latitud: 42-35N, longitud: 005-39W, altitud: 926 m

Observación

El informe se hizo hace 30 minutos, a las 23:00 UTC
Viento 5 kt del norte-noroeste
Temperatura 19°C
Humedad 52%
Presión 1019 hPa
Visibilidad 10 km o más

METAR: LELN 212300Z AUTO 33005KT 9999 NCD 19/09 Q1019

Hora: 01:30 (23:30 UTC)

Pronóstico

El informe se hizo hace 6 horas y 30 minutos, a las 17:00 UTC
Pronóstico válido del 21 a las 18 UTC al 22 a las 03 UTC
Viento 7 kt del noreste
Visibilidad 10 km o más
sin nubes por debajo de 1500 m y sin presencia de cumulonimbus.
Temporalmente
del 21 a las 18 UTC al 21 a las 20 UTC
Escasas nubes a una altura de 5000 ft, Cumulus congestus.

TAF: LELN 211700Z 2118/2203 04007KT CAVOK TEMPO 2118/2120 FEW050TCU

Observaciones y pronósticos meteorológicos de más de 4000 aeropuertos (mensajes METAR y TAF).

Los puntos amarillos y rojos representan las estaciones disponibles.

Ponga el ratón en el punto deseado para ver el nombre de la estación.

Haga clic para ver las observaciones y los pronósticos meteorológicos.

Para cambiar el mapa : haga clic en los botones verdes con una cruz de color negro para hacer un zoom, en el botón verde con un guión para alejar o en las flechas verdes para mapas adyacentes.


METAR-TAF: